sensor_id;sensor_type;location;lat;lon;timestamp;P1;durP1;ratioP1;P2;durP2;ratioP2
21663;SDS011;10993;52.510;13.456;2023-11-21T00:02:50;10.27;;;6.43;;
21663;SDS011;10993;52.510;13.456;2023-11-21T00:07:50;13.48;;;7.00;;
21663;SDS011;10993;52.510;13.456;2023-11-21T00:12:52;11.55;;;6.85;;
21663;SDS011;10993;52.510;13.456;2023-11-21T00:17:55;17.73;;;8.95;;
21663;SDS011;10993;52.510;13.456;2023-11-21T00:22:55;18.88;;;9.75;;
21663;SDS011;10993;52.510;13.456;2023-11-21T00:27:57;23.42;;;11.00;;
21663;SDS011;10993;52.510;13.456;2023-11-21T00:32:57;22.88;;;11.48;;
21663;SDS011;10993;52.510;13.456;2023-11-21T00:37:57;31.38;;;12.57;;
21663;SDS011;10993;52.510;13.456;2023-11-21T00:42:59;27.58;;;14.07;;
21663;SDS011;10993;52.510;13.456;2023-11-21T00:48:00;30.73;;;13.93;;
21663;SDS011;10993;52.510;13.456;2023-11-21T00:53:01;30.38;;;13.25;;
21663;SDS011;10993;52.510;13.456;2023-11-21T00:58:03;36.15;;;14.98;;
21663;SDS011;10993;52.510;13.456;2023-11-21T01:03:04;35.33;;;15.68;;
21663;SDS011;10993;52.510;13.456;2023-11-21T01:08:04;35.38;;;14.52;;
21663;SDS011;10993;52.510;13.456;2023-11-21T01:13:06;35.50;;;15.30;;
21663;SDS011;10993;52.510;13.456;2023-11-21T01:18:07;38.92;;;15.85;;
21663;SDS011;10993;52.510;13.456;2023-11-21T01:23:08;40.53;;;15.85;;
21663;SDS011;10993;52.510;13.456;2023-11-21T01:28:10;47.40;;;18.38;;
21663;SDS011;10993;52.510;13.456;2023-11-21T01:33:10;48.50;;;18.90;;
21663;SDS011;10993;52.510;13.456;2023-11-21T01:38:10;58.38;;;20.55;;
21663;SDS011;10993;52.510;13.456;2023-11-21T01:43:12;57.03;;;19.02;;
21663;SDS011;10993;52.510;13.456;2023-11-21T01:48:12;54.33;;;19.25;;
21663;SDS011;10993;52.510;13.456;2023-11-21T01:53:13;46.22;;;15.45;;
21663;SDS011;10993;52.510;13.456;2023-11-21T01:58:15;45.17;;;16.10;;
21663;SDS011;10993;52.510;13.456;2023-11-21T02:03:16;44.63;;;14.77;;
21663;SDS011;10993;52.510;13.456;2023-11-21T02:08:17;38.67;;;13.88;;
21663;SDS011;10993;52.510;13.456;2023-11-21T02:13:20;39.72;;;13.30;;
21663;SDS011;10993;52.510;13.456;2023-11-21T02:18:20;33.75;;;12.30;;
21663;SDS011;10993;52.510;13.456;2023-11-21T02:23:23;27.20;;;11.20;;
21663;SDS011;10993;52.510;13.456;2023-11-21T02:28:28;38.45;;;13.02;;
21663;SDS011;10993;52.510;13.456;2023-11-21T02:33:29;29.25;;;11.88;;
21663;SDS011;10993;52.510;13.456;2023-11-21T02:38:30;26.50;;;10.88;;
21663;SDS011;10993;52.510;13.456;2023-11-21T02:43:31;26.75;;;10.48;;
21663;SDS011;10993;52.510;13.456;2023-11-21T02:48:31;25.70;;;10.60;;
21663;SDS011;10993;52.510;13.456;2023-11-21T02:53:33;25.10;;;9.32;;
21663;SDS011;10993;52.510;13.456;2023-11-21T02:58:33;20.05;;;9.32;;
21663;SDS011;10993;52.510;13.456;2023-11-21T03:03:33;18.67;;;9.32;;
21663;SDS011;10993;52.510;13.456;2023-11-21T03:08:35;19.98;;;10.55;;
21663;SDS011;10993;52.510;13.456;2023-11-21T03:13:35;23.10;;;10.65;;
21663;SDS011;10993;52.510;13.456;2023-11-21T03:18:36;17.67;;;9.20;;
21663;SDS011;10993;52.510;13.456;2023-11-21T03:23:38;13.27;;;8.10;;
21663;SDS011;10993;52.510;13.456;2023-11-21T03:28:38;16.02;;;8.50;;
21663;SDS011;10993;52.510;13.456;2023-11-21T03:33:39;15.65;;;8.25;;
21663;SDS011;10993;52.510;13.456;2023-11-21T03:38:41;15.00;;;7.97;;
21663;SDS011;10993;52.510;13.456;2023-11-21T03:43:41;14.70;;;8.98;;
21663;SDS011;10993;52.510;13.456;2023-11-21T03:48:42;11.30;;;6.68;;
21663;SDS011;10993;52.510;13.456;2023-11-21T03:53:43;14.57;;;7.30;;
21663;SDS011;10993;52.510;13.456;2023-11-21T03:58:44;15.98;;;7.95;;
21663;SDS011;10993;52.510;13.456;2023-11-21T04:03:44;13.25;;;7.18;;
21663;SDS011;10993;52.510;13.456;2023-11-21T04:08:46;12.93;;;7.03;;
21663;SDS011;10993;52.510;13.456;2023-11-21T04:13:46;13.93;;;7.30;;
21663;SDS011;10993;52.510;13.456;2023-11-21T04:18:46;10.65;;;6.50;;
21663;SDS011;10993;52.510;13.456;2023-11-21T04:23:48;13.65;;;7.50;;
21663;SDS011;10993;52.510;13.456;2023-11-21T04:28:48;11.30;;;7.20;;
21663;SDS011;10993;52.510;13.456;2023-11-21T04:33:49;9.65;;;5.53;;
21663;SDS011;10993;52.510;13.456;2023-11-21T04:38:51;8.93;;;5.38;;
21663;SDS011;10993;52.510;13.456;2023-11-21T04:43:51;10.75;;;6.13;;
21663;SDS011;10993;52.510;13.456;2023-11-21T04:48:52;10.80;;;5.65;;
21663;SDS011;10993;52.510;13.456;2023-11-21T04:53:53;11.68;;;6.18;;
21663;SDS011;10993;52.510;13.456;2023-11-21T04:58:54;11.27;;;5.72;;
21663;SDS011;10993;52.510;13.456;2023-11-21T05:03:54;9.65;;;5.15;;
21663;SDS011;10993;52.510;13.456;2023-11-21T05:08:58;8.30;;;4.63;;
21663;SDS011;10993;52.510;13.456;2023-11-21T05:13:58;8.32;;;4.35;;
21663;SDS011;10993;52.510;13.456;2023-11-21T05:19:01;8.52;;;5.05;;
21663;SDS011;10993;52.510;13.456;2023-11-21T05:24:03;9.63;;;5.45;;
21663;SDS011;10993;52.510;13.456;2023-11-21T05:29:05;9.38;;;4.43;;
21663;SDS011;10993;52.510;13.456;2023-11-21T05:34:05;9.35;;;4.72;;
21663;SDS011;10993;52.510;13.456;2023-11-21T05:39:07;9.48;;;4.45;;
21663;SDS011;10993;52.510;13.456;2023-11-21T05:44:07;9.80;;;5.32;;
21663;SDS011;10993;52.510;13.456;2023-11-21T05:49:08;7.95;;;4.75;;
21663;SDS011;10993;52.510;13.456;2023-11-21T05:54:10;7.65;;;4.00;;
21663;SDS011;10993;52.510;13.456;2023-11-21T05:59:10;8.07;;;4.80;;
21663;SDS011;10993;52.510;13.456;2023-11-21T06:04:10;10.32;;;4.50;;
21663;SDS011;10993;52.510;13.456;2023-11-21T06:09:12;10.30;;;5.30;;
21663;SDS011;10993;52.510;13.456;2023-11-21T06:14:13;11.88;;;6.07;;
21663;SDS011;10993;52.510;13.456;2023-11-21T06:19:15;10.07;;;5.68;;
21663;SDS011;10993;52.510;13.456;2023-11-21T06:24:16;9.82;;;5.20;;
21663;SDS011;10993;52.510;13.456;2023-11-21T06:29:17;10.40;;;5.43;;
21663;SDS011;10993;52.510;13.456;2023-11-21T06:34:17;10.77;;;5.80;;
21663;SDS011;10993;52.510;13.456;2023-11-21T06:39:19;10.82;;;5.05;;
21663;SDS011;10993;52.510;13.456;2023-11-21T06:44:22;9.25;;;4.82;;
21663;SDS011;10993;52.510;13.456;2023-11-21T06:49:23;8.43;;;4.70;;
21663;SDS011;10993;52.510;13.456;2023-11-21T06:54:26;8.90;;;4.70;;
21663;SDS011;10993;52.510;13.456;2023-11-21T06:59:28;9.05;;;4.60;;
21663;SDS011;10993;52.510;13.456;2023-11-21T07:04:29;9.80;;;4.95;;
21663;SDS011;10993;52.510;13.456;2023-11-21T07:09:30;9.88;;;4.95;;
21663;SDS011;10993;52.510;13.456;2023-11-21T07:14:31;8.40;;;4.60;;
21663;SDS011;10993;52.510;13.456;2023-11-21T07:19:32;8.02;;;4.55;;
21663;SDS011;10993;52.510;13.456;2023-11-21T07:24:33;7.68;;;4.50;;
21663;SDS011;10993;52.510;13.456;2023-11-21T07:29:34;8.88;;;4.55;;
21663;SDS011;10993;52.510;13.456;2023-11-21T07:34:34;6.82;;;4.00;;
21663;SDS011;10993;52.510;13.456;2023-11-21T07:39:36;6.70;;;3.85;;
21663;SDS011;10993;52.510;13.456;2023-11-21T07:44:41;9.02;;;3.90;;
21663;SDS011;10993;52.510;13.456;2023-11-21T07:49:42;7.05;;;4.20;;
21663;SDS011;10993;52.510;13.456;2023-11-21T07:54:45;6.95;;;3.60;;
21663;SDS011;10993;52.510;13.456;2023-11-21T07:59:45;6.88;;;3.40;;
21663;SDS011;10993;52.510;13.456;2023-11-21T08:04:46;7.55;;;3.58;;
21663;SDS011;10993;52.510;13.456;2023-11-21T08:09:50;8.05;;;4.35;;
21663;SDS011;10993;52.510;13.456;2023-11-21T08:14:51;8.73;;;4.35;;
21663;SDS011;10993;52.510;13.456;2023-11-21T08:19:51;9.48;;;4.32;;
21663;SDS011;10993;52.510;13.456;2023-11-21T08:24:53;11.48;;;4.18;;
21663;SDS011;10993;52.510;13.456;2023-11-21T08:29:55;11.27;;;5.00;;
21663;SDS011;10993;52.510;13.456;2023-11-21T08:34:57;13.88;;;5.32;;
21663;SDS011;10993;52.510;13.456;2023-11-21T08:39:59;14.77;;;5.20;;
21663;SDS011;10993;52.510;13.456;2023-11-21T08:44:59;13.23;;;5.15;;
21663;SDS011;10993;52.510;13.456;2023-11-21T08:50:00;16.30;;;5.43;;
21663;SDS011;10993;52.510;13.456;2023-11-21T08:55:02;15.40;;;4.78;;
21663;SDS011;10993;52.510;13.456;2023-11-21T09:00:08;15.68;;;5.88;;
21663;SDS011;10993;52.510;13.456;2023-11-21T09:05:13;15.68;;;5.55;;
21663;SDS011;10993;52.510;13.456;2023-11-21T09:10:15;16.33;;;5.88;;
21663;SDS011;10993;52.510;13.456;2023-11-21T09:15:16;17.63;;;6.70;;
21663;SDS011;10993;52.510;13.456;2023-11-21T09:20:16;15.85;;;6.00;;
21663;SDS011;10993;52.510;13.456;2023-11-21T09:25:18;12.90;;;5.68;;
21663;SDS011;10993;52.510;13.456;2023-11-21T09:30:20;14.35;;;4.63;;
21663;SDS011;10993;52.510;13.456;2023-11-21T09:35:20;20.13;;;6.05;;
21663;SDS011;10993;52.510;13.456;2023-11-21T09:40:22;7.78;;;3.08;;
21663;SDS011;10993;52.510;13.456;2023-11-21T09:45:24;6.97;;;2.85;;
21663;SDS011;10993;52.510;13.456;2023-11-21T09:50:26;6.72;;;2.42;;
21663;SDS011;10993;52.510;13.456;2023-11-21T09:55:28;6.93;;;2.45;;
21663;SDS011;10993;52.510;13.456;2023-11-21T10:00:35;3.72;;;1.63;;
21663;SDS011;10993;52.510;13.456;2023-11-21T10:05:36;5.65;;;1.73;;
21663;SDS011;10993;52.510;13.456;2023-11-21T10:10:40;4.85;;;1.67;;
21663;SDS011;10993;52.510;13.456;2023-11-21T10:15:44;3.22;;;1.42;;
21663;SDS011;10993;52.510;13.456;2023-11-21T10:20:50;3.00;;;1.70;;
21663;SDS011;10993;52.510;13.456;2023-11-21T10:25:55;3.47;;;1.70;;
21663;SDS011;10993;52.510;13.456;2023-11-21T10:30:56;3.88;;;1.83;;
21663;SDS011;10993;52.510;13.456;2023-11-21T10:35:56;4.50;;;2.20;;
21663;SDS011;10993;52.510;13.456;2023-11-21T10:40:58;4.28;;;2.13;;
21663;SDS011;10993;52.510;13.456;2023-11-21T10:45:59;4.78;;;2.25;;
21663;SDS011;10993;52.510;13.456;2023-11-21T10:51:01;7.00;;;2.15;;
21663;SDS011;10993;52.510;13.456;2023-11-21T10:56:11;6.38;;;2.72;;
21663;SDS011;10993;52.510;13.456;2023-11-21T11:01:17;3.95;;;2.13;;
21663;SDS011;10993;52.510;13.456;2023-11-21T11:06:19;3.85;;;2.10;;
21663;SDS011;10993;52.510;13.456;2023-11-21T11:11:20;4.35;;;2.58;;
21663;SDS011;10993;52.510;13.456;2023-11-21T11:16:21;7.55;;;3.92;;
21663;SDS011;10993;52.510;13.456;2023-11-21T11:21:25;5.47;;;3.10;;
21663;SDS011;10993;52.510;13.456;2023-11-21T11:26:38;5.57;;;3.20;;
21663;SDS011;10993;52.510;13.456;2023-11-21T11:31:50;7.30;;;3.53;;
21663;SDS011;10993;52.510;13.456;2023-11-21T11:37:01;6.75;;;2.90;;
21663;SDS011;10993;52.510;13.456;2023-11-21T11:42:06;6.85;;;3.20;;
21663;SDS011;10993;52.510;13.456;2023-11-21T11:47:12;6.15;;;3.47;;
21663;SDS011;10993;52.510;13.456;2023-11-21T11:52:32;6.07;;;3.22;;
21663;SDS011;10993;52.510;13.456;2023-11-21T11:57:35;5.15;;;2.85;;
21663;SDS011;10993;52.510;13.456;2023-11-21T12:02:36;6.18;;;3.20;;
21663;SDS011;10993;52.510;13.456;2023-11-21T12:07:47;5.13;;;3.00;;
21663;SDS011;10993;52.510;13.456;2023-11-21T12:12:51;4.70;;;3.07;;
21663;SDS011;10993;52.510;13.456;2023-11-21T12:17:52;8.97;;;2.80;;
21663;SDS011;10993;52.510;13.456;2023-11-21T12:22:53;5.70;;;3.00;;
21663;SDS011;10993;52.510;13.456;2023-11-21T12:27:56;4.40;;;2.38;;
21663;SDS011;10993;52.510;13.456;2023-11-21T12:32:57;5.82;;;2.13;;
21663;SDS011;10993;52.510;13.456;2023-11-21T12:37:59;4.60;;;2.35;;
21663;SDS011;10993;52.510;13.456;2023-11-21T12:43:03;5.20;;;2.97;;
21663;SDS011;10993;52.510;13.456;2023-11-21T12:48:05;7.18;;;2.97;;
21663;SDS011;10993;52.510;13.456;2023-11-21T12:53:11;5.15;;;2.47;;
21663;SDS011;10993;52.510;13.456;2023-11-21T12:58:14;5.20;;;2.80;;
21663;SDS011;10993;52.510;13.456;2023-11-21T13:03:14;6.20;;;2.97;;
21663;SDS011;10993;52.510;13.456;2023-11-21T13:08:25;5.50;;;3.00;;
21663;SDS011;10993;52.510;13.456;2023-11-21T13:13:29;5.45;;;2.83;;
21663;SDS011;10993;52.510;13.456;2023-11-21T13:18:29;4.57;;;2.47;;
21663;SDS011;10993;52.510;13.456;2023-11-21T13:23:34;5.03;;;2.83;;
21663;SDS011;10993;52.510;13.456;2023-11-21T13:28:37;8.10;;;3.95;;
21663;SDS011;10993;52.510;13.456;2023-11-21T13:33:37;7.43;;;3.53;;
21663;SDS011;10993;52.510;13.456;2023-11-21T13:38:38;8.18;;;4.15;;
21663;SDS011;10993;52.510;13.456;2023-11-21T13:43:43;13.13;;;5.30;;
21663;SDS011;10993;52.510;13.456;2023-11-21T13:48:50;8.27;;;4.50;;
21663;SDS011;10993;52.510;13.456;2023-11-21T13:53:55;8.93;;;5.17;;
21663;SDS011;10993;52.510;13.456;2023-11-21T13:58:57;7.43;;;4.27;;
21663;SDS011;10993;52.510;13.456;2023-11-21T14:04:04;9.68;;;5.10;;
21663;SDS011;10993;52.510;13.456;2023-11-21T14:09:19;9.67;;;5.10;;
21663;SDS011;10993;52.510;13.456;2023-11-21T14:14:27;11.20;;;5.83;;
21663;SDS011;10993;52.510;13.456;2023-11-21T14:19:30;13.00;;;6.82;;
21663;SDS011;10993;52.510;13.456;2023-11-21T14:24:32;15.73;;;8.87;;
21663;SDS011;10993;52.510;13.456;2023-11-21T14:29:34;16.07;;;9.13;;
21663;SDS011;10993;52.510;13.456;2023-11-21T14:34:39;18.88;;;10.05;;
21663;SDS011;10993;52.510;13.456;2023-11-21T14:39:40;17.70;;;10.30;;
21663;SDS011;10993;52.510;13.456;2023-11-21T14:44:46;21.93;;;10.93;;
21663;SDS011;10993;52.510;13.456;2023-11-21T14:49:46;22.03;;;11.63;;
21663;SDS011;10993;52.510;13.456;2023-11-21T14:54:52;24.02;;;12.85;;
21663;SDS011;10993;52.510;13.456;2023-11-21T15:00:15;26.35;;;12.15;;
21663;SDS011;10993;52.510;13.456;2023-11-21T15:05:36;23.87;;;13.93;;
21663;SDS011;10993;52.510;13.456;2023-11-21T15:10:39;21.53;;;11.50;;
21663;SDS011;10993;52.510;13.456;2023-11-21T15:15:49;19.50;;;10.60;;
21663;SDS011;10993;52.510;13.456;2023-11-21T15:20:49;21.67;;;11.93;;
21663;SDS011;10993;52.510;13.456;2023-11-21T15:25:49;18.23;;;10.17;;
21663;SDS011;10993;52.510;13.456;2023-11-21T15:30:51;22.67;;;12.03;;
21663;SDS011;10993;52.510;13.456;2023-11-21T15:35:51;21.07;;;11.17;;
21663;SDS011;10993;52.510;13.456;2023-11-21T15:40:52;17.73;;;9.47;;
21663;SDS011;10993;52.510;13.456;2023-11-21T15:45:54;17.03;;;10.00;;
21663;SDS011;10993;52.510;13.456;2023-11-21T15:50:55;19.43;;;8.87;;
21663;SDS011;10993;52.510;13.456;2023-11-21T15:55:57;18.00;;;8.63;;
21663;SDS011;10993;52.510;13.456;2023-11-21T16:00:59;16.67;;;8.53;;
21663;SDS011;10993;52.510;13.456;2023-11-21T16:05:59;17.30;;;8.97;;
21663;SDS011;10993;52.510;13.456;2023-11-21T16:11:00;17.23;;;8.73;;
21663;SDS011;10993;52.510;13.456;2023-11-21T16:16:02;17.10;;;8.17;;
21663;SDS011;10993;52.510;13.456;2023-11-21T16:21:02;14.13;;;8.03;;
21663;SDS011;10993;52.510;13.456;2023-11-21T16:26:02;15.40;;;7.87;;
21663;SDS011;10993;52.510;13.456;2023-11-21T16:31:06;14.17;;;7.73;;
21663;SDS011;10993;52.510;13.456;2023-11-21T16:36:06;14.77;;;7.23;;
21663;SDS011;10993;52.510;13.456;2023-11-21T16:41:07;12.87;;;6.80;;
21663;SDS011;10993;52.510;13.456;2023-11-21T16:46:11;10.87;;;6.07;;
21663;SDS011;10993;52.510;13.456;2023-11-21T16:51:11;13.03;;;7.53;;
21663;SDS011;10993;52.510;13.456;2023-11-21T16:56:17;19.73;;;7.90;;
21663;SDS011;10993;52.510;13.456;2023-11-21T17:01:18;14.83;;;7.50;;
21663;SDS011;10993;52.510;13.456;2023-11-21T17:06:19;12.97;;;7.73;;
21663;SDS011;10993;52.510;13.456;2023-11-21T17:11:19;12.03;;;6.67;;
21663;SDS011;10993;52.510;13.456;2023-11-21T17:16:21;13.07;;;7.90;;
21663;SDS011;10993;52.510;13.456;2023-11-21T17:21:24;12.00;;;7.17;;
21663;SDS011;10993;52.510;13.456;2023-11-21T17:26:24;14.60;;;8.20;;
21663;SDS011;10993;52.510;13.456;2023-11-21T17:31:26;12.53;;;7.47;;
21663;SDS011;10993;52.510;13.456;2023-11-21T17:36:26;13.27;;;7.27;;
21663;SDS011;10993;52.510;13.456;2023-11-21T17:41:27;17.37;;;8.17;;
21663;SDS011;10993;52.510;13.456;2023-11-21T17:46:28;17.07;;;8.10;;
21663;SDS011;10993;52.510;13.456;2023-11-21T17:51:30;12.57;;;7.20;;
21663;SDS011;10993;52.510;13.456;2023-11-21T17:56:30;13.30;;;7.10;;
21663;SDS011;10993;52.510;13.456;2023-11-21T18:01:36;15.43;;;7.53;;
21663;SDS011;10993;52.510;13.456;2023-11-21T18:06:37;13.90;;;7.63;;
21663;SDS011;10993;52.510;13.456;2023-11-21T18:11:37;18.87;;;7.87;;
21663;SDS011;10993;52.510;13.456;2023-11-21T18:16:39;14.07;;;7.40;;
21663;SDS011;10993;52.510;13.456;2023-11-21T18:21:42;13.80;;;6.83;;
21663;SDS011;10993;52.510;13.456;2023-11-21T18:26:42;14.47;;;7.33;;
21663;SDS011;10993;52.510;13.456;2023-11-21T18:31:45;18.83;;;8.50;;
21663;SDS011;10993;52.510;13.456;2023-11-21T18:36:46;15.38;;;8.40;;
21663;SDS011;10993;52.510;13.456;2023-11-21T18:41:46;14.48;;;7.63;;
21663;SDS011;10993;52.510;13.456;2023-11-21T18:46:48;15.05;;;7.63;;
21663;SDS011;10993;52.510;13.456;2023-11-21T18:51:54;12.67;;;7.10;;
21663;SDS011;10993;52.510;13.456;2023-11-21T18:56:56;8.90;;;5.63;;
21663;SDS011;10993;52.510;13.456;2023-11-21T19:01:59;14.07;;;7.77;;
21663;SDS011;10993;52.510;13.456;2023-11-21T19:06:59;11.60;;;6.60;;
21663;SDS011;10993;52.510;13.456;2023-11-21T19:12:02;13.93;;;7.23;;
21663;SDS011;10993;52.510;13.456;2023-11-21T19:17:04;15.43;;;7.33;;
21663;SDS011;10993;52.510;13.456;2023-11-21T19:22:04;17.93;;;8.43;;
21663;SDS011;10993;52.510;13.456;2023-11-21T19:27:05;13.17;;;7.20;;
21663;SDS011;10993;52.510;13.456;2023-11-21T19:32:07;10.67;;;6.13;;
21663;SDS011;10993;52.510;13.456;2023-11-21T19:37:07;14.13;;;6.07;;
21663;SDS011;10993;52.510;13.456;2023-11-21T19:42:08;11.73;;;6.50;;
21663;SDS011;10993;52.510;13.456;2023-11-21T19:47:09;11.97;;;6.43;;
21663;SDS011;10993;52.510;13.456;2023-11-21T19:52:10;11.53;;;6.10;;
21663;SDS011;10993;52.510;13.456;2023-11-21T19:57:10;13.20;;;5.30;;
21663;SDS011;10993;52.510;13.456;2023-11-21T20:02:15;16.37;;;7.90;;
21663;SDS011;10993;52.510;13.456;2023-11-21T20:07:16;12.33;;;6.23;;
21663;SDS011;10993;52.510;13.456;2023-11-21T20:12:21;12.80;;;6.63;;
21663;SDS011;10993;52.510;13.456;2023-11-21T20:17:22;14.87;;;7.20;;
21663;SDS011;10993;52.510;13.456;2023-11-21T20:22:24;12.60;;;6.47;;
21663;SDS011;10993;52.510;13.456;2023-11-21T20:27:24;14.87;;;7.03;;
21663;SDS011;10993;52.510;13.456;2023-11-21T20:32:26;12.37;;;6.20;;
21663;SDS011;10993;52.510;13.456;2023-11-21T20:37:26;13.30;;;6.40;;
21663;SDS011;10993;52.510;13.456;2023-11-21T20:42:27;12.73;;;6.63;;
21663;SDS011;10993;52.510;13.456;2023-11-21T20:47:32;11.80;;;6.30;;
21663;SDS011;10993;52.510;13.456;2023-11-21T20:52:33;12.10;;;6.70;;
21663;SDS011;10993;52.510;13.456;2023-11-21T20:57:34;12.37;;;6.13;;
21663;SDS011;10993;52.510;13.456;2023-11-21T21:02:36;15.47;;;6.80;;
21663;SDS011;10993;52.510;13.456;2023-11-21T21:07:36;11.80;;;5.93;;
21663;SDS011;10993;52.510;13.456;2023-11-21T21:12:36;11.77;;;5.73;;
21663;SDS011;10993;52.510;13.456;2023-11-21T21:17:39;13.90;;;5.90;;
21663;SDS011;10993;52.510;13.456;2023-11-21T21:22:40;17.23;;;6.90;;
21663;SDS011;10993;52.510;13.456;2023-11-21T21:27:42;13.30;;;6.13;;
21663;SDS011;10993;52.510;13.456;2023-11-21T21:32:44;15.00;;;6.00;;
21663;SDS011;10993;52.510;13.456;2023-11-21T21:37:44;14.60;;;6.07;;
21663;SDS011;10993;52.510;13.456;2023-11-21T21:42:44;11.50;;;6.27;;
21663;SDS011;10993;52.510;13.456;2023-11-21T21:47:47;15.27;;;6.57;;
21663;SDS011;10993;52.510;13.456;2023-11-21T21:52:48;13.37;;;6.33;;
21663;SDS011;10993;52.510;13.456;2023-11-21T21:57:49;16.13;;;6.43;;
21663;SDS011;10993;52.510;13.456;2023-11-21T22:02:51;13.73;;;5.87;;
21663;SDS011;10993;52.510;13.456;2023-11-21T22:07:51;10.80;;;5.60;;
21663;SDS011;10993;52.510;13.456;2023-11-21T22:12:51;12.77;;;5.77;;
21663;SDS011;10993;52.510;13.456;2023-11-21T22:17:54;11.93;;;5.53;;
21663;SDS011;10993;52.510;13.456;2023-11-21T22:22:55;12.50;;;6.33;;
21663;SDS011;10993;52.510;13.456;2023-11-21T22:27:55;14.20;;;5.97;;
21663;SDS011;10993;52.510;13.456;2023-11-21T22:32:57;12.97;;;6.30;;
21663;SDS011;10993;52.510;13.456;2023-11-21T22:37:58;12.23;;;5.77;;
21663;SDS011;10993;52.510;13.456;2023-11-21T22:42:59;14.67;;;6.40;;
21663;SDS011;10993;52.510;13.456;2023-11-21T22:48:00;12.70;;;5.43;;
21663;SDS011;10993;52.510;13.456;2023-11-21T22:53:01;11.17;;;5.17;;
21663;SDS011;10993;52.510;13.456;2023-11-21T22:58:02;9.10;;;5.13;;
21663;SDS011;10993;52.510;13.456;2023-11-21T23:03:03;11.50;;;5.60;;
21663;SDS011;10993;52.510;13.456;2023-11-21T23:08:05;13.53;;;5.90;;
21663;SDS011;10993;52.510;13.456;2023-11-21T23:13:06;11.43;;;5.47;;
21663;SDS011;10993;52.510;13.456;2023-11-21T23:18:09;9.27;;;5.13;;
21663;SDS011;10993;52.510;13.456;2023-11-21T23:23:09;12.30;;;5.30;;
21663;SDS011;10993;52.510;13.456;2023-11-21T23:28:11;8.60;;;4.50;;
21663;SDS011;10993;52.510;13.456;2023-11-21T23:33:12;9.97;;;4.90;;
21663;SDS011;10993;52.510;13.456;2023-11-21T23:38:13;10.50;;;4.63;;
21663;SDS011;10993;52.510;13.456;2023-11-21T23:43:13;10.40;;;4.50;;
21663;SDS011;10993;52.510;13.456;2023-11-21T23:48:15;9.82;;;4.25;;
21663;SDS011;10993;52.510;13.456;2023-11-21T23:53:15;7.93;;;4.10;;
21663;SDS011;10993;52.510;13.456;2023-11-21T23:58:16;8.27;;;4.17;;
